Worst METAR reports worldwide for Flight Simulation

Rain

Station Wind Gust Vis(SM) Temp/Dew Baro
KAAF 13 40 0.75 24/22 30.04
KAAF 111911Z AUTO 06013G40KT 3/4SM +RA BR FEW018 BKN047 OVC070 24/22 A3004 RMK AO2 PK WND 03040/1905 PRESRR P0004 T02440222 TSNO
KMAI 31 37 1.5 23/22 30.03
KMAI 111912Z AUTO 05031G37KT 1 1/2SM +TSRA BR SCT012 BKN022 OVC048 24/22 A3003 RMK AO2 PK WND 05037/1911 WSHFT 1851 LTG DSNT ALQDS RAB00 PRESRR P0024 T02390222
KCCA 14 26 1 25/23 29.99
KCCA 111915Z AUTO 32014G26KT 1SM VCTS RA BKN004 OVC050 25/23 A2999 RMK AO2
KDYR 17 25 2 23/21 29.98
KDYR 111909Z AUTO 11017G25KT 2SM +TSRA BR SCT017 SCT026 BKN040 23/21 A2998 RMK AO2 WSHFT 1849 VIS 1/2V5 LTG DSNT ALQDS PNO $
KXNA 15 25 10 22/19 30.04
KXNA 111853Z 20015G25KT 10SM VCTS -RA FEW017 FEW060 BKN110 22/19 A3004 RMK AO2 LTG DSNT SE-W RAB41 SLP158 P0001 T02220194

Station Wind Gust Vis(SM) Temp/Dew Baro
CYPX 19 24 2 14/14 29.29
CYPX 111905Z AUTO 03019G24KT 2SM -RA BR BKN005 BKN013 OVC017 14/14 A2929 RMK SLP919 DENSITY ALT 700FT
CYBG 16 22 12 26/17 29.76
CYBG 111905Z 30016G22KT 12SM -SHRA BKN060TCU BKN080 26/17 A2976 RMK TCU5AC2 TCU OVRHD MOVG NE PRESRR SLP078
KCBM 15 22 10 28/22 30.00
KCBM 111905Z COR AUTO 28015G22KT 10SM -TSRA BKN041 OVC049 28/22 A3000 RMK AO2 DZB1858E01RAB01 TSE05 SLP160 $ COR 1909
KLEE 8 22 3 25/22 30.06
KLEE 111910Z 33008G22KT 300V360 3SM -TSRA BR SCT034 BKN050 OVC060 25/23 A3006 RMK AO2 LTG DSNT ALQDS P0013 T02500228
CYCY 16 21 3 6/5 29.62
CYCY 111900Z 02016G21KT 3SM -RA BR SCT018 BKN024 BKN031 OVC047 06/05 A2962 RMK SC4SC2SC1SC1 SLP033
KOZR 10 21 7 23/21 29.98
KOZR 111910Z AUTO 09010G21KT 7SM -TSRA BKN013 23/21 A2998 RMK AO2 CIG 013V018 SLP152
CYAT 10 20 9 24/13 29.44
CYAT 111910Z AUTO 28010G20KT 9SM -RA SCT075 BKN091 OVC120 24/13 A2944 RMK SLP972 DENSITY ALT 1600FT
K17J 4 20 0.75 23/22 30.01
K17J 111855Z AUTO 35004G20KT 3/4SM +TSRA BR BKN008 OVC016 23/23 A3001 RMK AO2 LTG DSNT ALQDS P0112 T02330229
KFYV 10 19 10 21/20 30.06
KFYV 111859Z 22010G19KT 10SM -TSRA FEW023 BKN050 OVC080 22/21 A3006 RMK AO2 LTG DSNT ALQDS TSB56 P0000 T02170206
CYWK 10 19 6 18/17 29.66
CYWK 111906Z 28010G19KT 240V310 6SM -SHRA FEW013 BKN025TCU OVC055 18/17 A2966 RMK CF2TCU4SC2 SLP049 DENSITY ALT 2900FT
KIYA 11 18 4 26/21 30.04
KIYA 111855Z AUTO 14011G18KT 4SM RA SCT016 BKN050 OVC060 26/22 A3004 RMK AO2 P0001 T02610219
LEMD 8 18 6.21 17/16 29.97
LEMD 111900Z 08008G18KT 030V140 9999 -RA FEW045 FEW065CB BKN080 17/16 Q1015 RERA R88/19//95 NOSIG
KRKR 12 17 1.75 21/19 30.06
KRKR 111855Z AUTO 25012G17KT 1 3/4SM +TSRA BKN041 OVC048 21/19 A3006 RMK AO2 VIS 1/4V5 LTG DSNT ALQS
KVBT 8 17 10 23/21 30.06
KVBT 111905Z AUTO 22008G17KT 10SM -RA BKN021 BKN027 BKN060 23/21 A3006 RMK AO2 RAB1858 TSNO PNO $
CYHY 9 16 12 16/15 29.61
CYHY 111908Z 07009G16KT 12SM -RA SCT009 BKN022 BKN055 16/15 A2961 RMK SC3SC2SC2 VIS S W 4 SM SLP035 DENSITY ALT 1200FT
KASD 4 14 1.5 30/24 30.01
KASD 111856Z AUTO 28004G14KT 1 1/2SM +RA FEW027 BKN041 OVC065 30/24 A3001 RMK AO2 RAB54 P0009 T03000244
SCCI 25 4.97 3/1 29.20
SCCI 111900Z 29025KT 8000 -SHSNRA FEW015 BKN020 03/01 Q0989 NOSIG
CYAS 22 8 9/8 29.30
CYAS 111900Z 03022KT 8SM -RA OVC004 09/08 A2930 RMK ST8 SLP928 DENSITY ALT 500FT
SCIP 18 1.24 17/16 29.88
SCIP 111900Z 32018KT 2000 +SHRA SCT010 BKN015 17/16 Q1012 NOSIG
LETL 17 6.21 22/14 30.00
LETL 111900Z AUTO 14017KT 9999 -RA NSC 22/14 Q1016
SCFT 17 6.21 10/1 29.97
SCFT 111900Z 28017KT 9999 -SHRA BKN040 10/01 Q1015
EHWO 16 3.04 20/17 29.94
EHWO 111911Z AUTO 01016KT 310V050 4900 +TSRA FEW011 SCT015CB BKN095 OVC101 20/17 Q1014 GRN
LFLC 16 6.21 24/18 29.97
LFLC 111900Z AUTO 17016KT 9999 -RA ///CB 24/18 Q1015 TEMPO VRB20G35KT TSRA
LETO 16 6.21 17/16 30.00
LETO 111900Z 09016KT 060V120 9999 -RA FEW068CB 17/16 Q1016 NOSIG
WIMM 15 3.73 24/23 29.82
WIMM 111900Z 21015KT 180V280 6000 -TSRA FEW016CB BKN017 24/23 Q1010 NOSIG RMK CB OVER THE FIELD
USCC 14 1.86 12/12 29.62
USCC 111900Z 33007MPS 3000 -SHRA BR BKN008CB 12/12 Q1003 R27/290050 NOSIG RMK QFE732
MUCU 13 4.97 27/25 29.94
MUCU 111852Z 12013KT 8000 -RA SCT020CB SCT060 27/25 Q1014
KMXF 11 9 32/23 29.96
KMXF 111858Z AUTO 25011KT 9SM -TSRA BKN046 32/23 A2996 RMK AO2 RAB58 SLP146 $
SCAP 11 6.21 8/2 30.09
SCAP 111900Z 21011KT 140V250 9999 -SHRA BKN035 08/02 Q1019
YMEN 10 6.21 10/8 29.85
YMEN 111900Z AUTO 36010KT 9999 -SHRA BKN060 OVC070 10/08 Q1011
KSLG 10 8 21/19 30.05
KSLG 111856Z AUTO 17010KT 8SM RA FEW004 BKN050 OVC070 21/19 A3005 RMK AO2 PK WND 24028/1813 RAB1758 PRESFR SLP164 P0078 T02110194 TSNO
ETIH 10 3.73 22/17 30.12
ETIH 111912Z AUTO 32010KT 6000 +RA VCTS FEW002 BKN050 OVC060 22/17 A3012 RMK AO2 TSE12 SLP183 $
SKMR 10 2.49 25/25 29.77
SKMR 111900Z 29010KT 4000 TSRA FEW010CB BKN013 25/25 A2977 RMK CB/N
EGPA 10 4.35 15/14 30.06
EGPA 111850Z AUTO 14010KT 7000 -RA SCT005/// 15/14 Q1018
MNPC 10 3.73 30/27 29.82
MNPC 111900Z 07010KT 6000 VCRA BKN016TCU SCT100 30/27 Q1010 TCURA/W/NW/N
CYQH 9 3 10/9 29.73
CYQH 111900Z 29009KT 3SM -RA BR OVC006 10/09 A2973 RMK SC8 RAG CIG SLP085 DENSITY ALT 2400FT
YMTG 9 6.21 10/9 29.68
YMTG 111900Z AUTO 02009KT 9999 -SHRA BKN014 OVC051 10/09 Q1005
KMGM 9 1 26/18 29.99
KMGM 111912Z 10009KT 1SM +TSRA BKN018 BKN044 OVC090 27/18 A2999 RMK AO2 PK WND 01038/1854 WSHFT 1842 LTG DSNT ALQDS P0078 T02670183
BIRK 9 6.21 13/11 29.91
BIRK 111900Z 16009KT 9999 -RA SCT018 BKN031 OVC060 13/11 Q1013
KMKO 9 10 23/22 30.00
KMKO 111905Z AUTO 13009KT 10SM -RA SCT021 BKN027 OVC060 23/23 A3000 RMK AO2 P0000 T02330228
CYPO 9 9 20/14 29.39
CYPO 111904Z AUTO 27009KT 230V300 9SM -RA SCT035 SCT049 BKN070 BKN086 20/14 A2939 RMK SLP953 DENSITY ALT 1300FT
KBAN 9 7 20/6 30.19
KBAN 111852Z AUTO 30009KT 250V320 7SM -RA BKN100 21/07 A3019 RMK AO2 RAB40 SLP121 P0000 T02060067 $
KDED 9 10 25/22 30.02
KDED 111855Z AUTO 19009KT 10SM TSRA SCT049 SCT065 OVC085 26/22 A3002 RMK AO2 LTG DSNT ALQDS T02560223
EBBR 9 6.21 24/19 29.94
EBBR 111850Z 16009KT 9999 -TSRA BKN050CB 24/19 Q1014 RESHRA BECMG NSW
RJNK 8 6.21 25/24 29.94
RJNK 111900Z 16008KT 9999 -SHRA FEW020 SCT030 FEW030TCU BKN050 25/24 Q1014